Time;durP1;ratioP1;P1;durP2;ratioP2;P2;SDS_P1;SDS_P2;PMS_P1;PMS_P2;Temp;Humidity;BMP_temperature;BMP_pressure;BME280_temperature;BME280_humidity;BME280_pressure;Samples;Min_cycle;Max_cycle;Signal;HPM_P1;HPM_P2
2023/07/13 00:00:32;;;;;;;1.70;1.13;;;;;;;;;;8317786;28;20045;-71
2023/07/13 00:04:32;;;;;;;1.20;1.10;;;;;;;;;;8300558;28;20036;-71
2023/07/13 00:08:32;;;;;;;2.03;1.30;;;;;;;;;;8319192;28;20028;-72
2023/07/13 00:12:35;;;;;;;3.45;1.10;;;;;;;;;;8321012;28;20783;-71
2023/07/13 00:16:36;;;;;;;3.17;0.90;;;;;;;;;;8291789;28;20033;-71
2023/07/13 00:20:36;;;;;;;1.02;0.98;;;;;;;;;;8321490;28;20535;-71
2023/07/13 00:24:41;;;;;;;2.65;1.05;;;;;;;;;;8322846;28;20070;-71
2023/07/13 00:28:41;;;;;;;2.88;1.23;;;;;;;;;;8317547;28;20104;-71
2023/07/13 00:32:41;;;;;;;2.05;1.25;;;;;;;;;;8320208;28;20061;-71
2023/07/13 00:36:42;;;;;;;1.40;1.20;;;;;;;;;;8316730;28;20024;-71
2023/07/13 00:40:42;;;;;;;3.30;1.23;;;;;;;;;;8319388;28;20028;-71
2023/07/13 00:45:00;;;;;;;3.22;1.10;;;;;;;;;;8320160;28;20413;-71
2023/07/13 00:49:02;;;;;;;1.77;1.10;;;;;;;;;;8315548;28;20770;-71
2023/07/13 00:53:03;;;;;;;4.03;1.10;;;;;;;;;;8318879;28;20017;-71
2023/07/13 00:57:06;;;;;;;1.88;1.30;;;;;;;;;;8313546;28;20494;-71
2023/07/13 01:01:06;;;;;;;5.95;1.45;;;;;;;;;;8320915;28;20037;-71
2023/07/13 01:05:11;;;;;;;2.83;1.30;;;;;;;;;;8319625;28;20116;-70
2023/07/13 01:09:11;;;;;;;2.97;1.10;;;;;;;;;;8318436;28;20118;-71
2023/07/13 01:13:12;;;;;;;2.55;1.20;;;;;;;;;;8315489;28;20021;-71
2023/07/13 01:17:12;;;;;;;1.93;1.23;;;;;;;;;;8311646;28;20060;-71
2023/07/13 01:21:12;;;;;;;1.45;1.10;;;;;;;;;;8314377;28;20311;-71
2023/07/13 01:25:12;;;;;;;4.03;1.30;;;;;;;;;;8319009;28;20052;-71
2023/07/13 01:29:12;;;;;;;2.22;1.10;;;;;;;;;;8316696;28;20082;-70
2023/07/13 01:33:14;;;;;;;2.10;1.27;;;;;;;;;;8317867;28;20029;-71
2023/07/13 01:37:14;;;;;;;3.53;1.30;;;;;;;;;;8317618;28;20554;-71
2023/07/13 01:41:14;;;;;;;4.85;1.38;;;;;;;;;;8317227;28;20087;-71
2023/07/13 01:45:14;;;;;;;6.13;1.27;;;;;;;;;;8318759;28;20104;-71
2023/07/13 01:49:14;;;;;;;3.50;1.03;;;;;;;;;;8317701;28;20021;-71
2023/07/13 01:53:15;;;;;;;1.33;0.97;;;;;;;;;;8324779;28;20028;-71
2023/07/13 01:57:15;;;;;;;2.83;1.05;;;;;;;;;;8323702;28;20112;-72
2023/07/13 02:01:15;;;;;;;1.23;1.13;;;;;;;;;;8322314;28;20052;-71
2023/07/13 02:05:15;;;;;;;3.63;1.23;;;;;;;;;;8324880;28;20036;-71
2023/07/13 02:09:15;;;;;;;3.87;1.20;;;;;;;;;;8321154;28;20056;-71
2023/07/13 02:13:16;;;;;;;5.38;1.30;;;;;;;;;;8323125;28;20020;-71
2023/07/13 02:17:16;;;;;;;3.15;1.27;;;;;;;;;;8322659;28;20107;-71
2023/07/13 02:21:16;;;;;;;4.50;1.30;;;;;;;;;;8322424;28;20092;-72
2023/07/13 02:25:16;;;;;;;1.20;1.10;;;;;;;;;;8327054;28;21060;-72
2023/07/13 02:29:16;;;;;;;2.28;1.20;;;;;;;;;;8324065;28;20029;-71
2023/07/13 02:33:17;;;;;;;3.53;1.20;;;;;;;;;;8308351;28;20080;-71
2023/07/13 02:37:17;;;;;;;2.35;1.20;;;;;;;;;;8324108;28;20035;-71
2023/07/13 02:41:17;;;;;;;2.35;1.30;;;;;;;;;;8324178;28;20016;-71
2023/07/13 02:45:18;;;;;;;1.40;1.23;;;;;;;;;;8308143;28;20044;-71
2023/07/13 02:49:18;;;;;;;3.40;1.23;;;;;;;;;;8323096;28;20039;-70
2023/07/13 02:53:18;;;;;;;5.05;1.40;;;;;;;;;;8326065;28;20059;-71
2023/07/13 02:57:18;;;;;;;2.67;1.27;;;;;;;;;;8324073;28;20021;-71
2023/07/13 03:01:20;;;;;;;5.70;1.70;;;;;;;;;;8300699;28;20032;-71
2023/07/13 03:05:20;;;;;;;2.60;1.20;;;;;;;;;;8319994;28;20025;-71
2023/07/13 03:09:21;;;;;;;1.52;1.10;;;;;;;;;;8322585;28;20021;-71
2023/07/13 03:13:21;;;;;;;3.55;1.05;;;;;;;;;;8325111;28;20032;-71
2023/07/13 03:17:21;;;;;;;4.05;1.40;;;;;;;;;;8321709;28;20044;-71
2023/07/13 03:21:21;;;;;;;1.67;1.20;;;;;;;;;;8300910;28;20017;-71
2023/07/13 03:25:22;;;;;;;1.88;1.10;;;;;;;;;;8319629;28;20079;-71
2023/07/13 03:29:22;;;;;;;3.30;1.60;;;;;;;;;;8324396;28;20029;-71
2023/07/13 03:33:22;;;;;;;3.33;1.60;;;;;;;;;;8323894;28;20131;-71
2023/07/13 03:37:23;;;;;;;2.30;1.20;;;;;;;;;;8320534;28;20028;-71
2023/07/13 03:41:24;;;;;;;2.15;1.20;;;;;;;;;;8322453;28;20313;-71
2023/07/13 03:45:24;;;;;;;2.70;1.27;;;;;;;;;;8299315;28;20084;-71
2023/07/13 03:49:24;;;;;;;1.92;1.10;;;;;;;;;;8325228;28;20032;-71
2023/07/13 03:53:24;;;;;;;2.00;1.10;;;;;;;;;;8324667;28;20040;-71
2023/07/13 03:57:25;;;;;;;2.72;1.23;;;;;;;;;;8322206;28;20032;-71
2023/07/13 04:01:25;;;;;;;2.30;1.30;;;;;;;;;;8324022;28;20452;-71
2023/07/13 04:05:25;;;;;;;2.27;1.20;;;;;;;;;;8320553;28;20024;-71
2023/07/13 04:09:26;;;;;;;3.83;1.40;;;;;;;;;;8323055;28;20267;-71
2023/07/13 04:13:26;;;;;;;2.77;1.30;;;;;;;;;;8301404;28;20041;-71
2023/07/13 04:17:26;;;;;;;5.55;1.20;;;;;;;;;;8315967;28;20041;-72
2023/07/13 04:21:27;;;;;;;5.82;1.63;;;;;;;;;;8320827;28;20033;-71
2023/07/13 04:25:28;;;;;;;11.48;1.58;;;;;;;;;;8316019;28;20279;-71
2023/07/13 04:29:28;;;;;;;5.07;1.30;;;;;;;;;;8318941;28;20992;-71
2023/07/13 04:33:28;;;;;;;4.95;1.50;;;;;;;;;;8316169;28;20770;-71
2023/07/13 04:37:29;;;;;;;4.28;1.30;;;;;;;;;;8319213;28;20041;-71
2023/07/13 04:41:29;;;;;;;7.85;1.50;;;;;;;;;;8315053;28;20025;-71
2023/07/13 04:45:30;;;;;;;5.45;1.75;;;;;;;;;;8312304;28;20571;-70
2023/07/13 04:49:31;;;;;;;3.58;1.60;;;;;;;;;;8322952;28;20059;-70
2023/07/13 04:53:32;;;;;;;3.17;1.10;;;;;;;;;;8311855;28;20768;-70
2023/07/13 04:57:32;;;;;;;4.00;1.08;;;;;;;;;;8297489;28;20120;-70
2023/07/13 05:01:32;;;;;;;2.80;1.10;;;;;;;;;;8315461;28;20041;-70
2023/07/13 05:05:33;;;;;;;4.82;1.30;;;;;;;;;;8320758;28;20025;-69
2023/07/13 05:09:34;;;;;;;9.13;1.30;;;;;;;;;;8316061;28;20134;-70
2023/07/13 05:13:34;;;;;;;8.02;1.40;;;;;;;;;;8313963;28;20120;-70
2023/07/13 05:17:34;;;;;;;4.07;1.00;;;;;;;;;;8313580;28;20040;-70
2023/07/13 05:21:35;;;;;;;8.05;1.20;;;;;;;;;;8314098;28;20677;-71
2023/07/13 05:25:35;;;;;;;6.60;1.20;;;;;;;;;;8304586;28;20567;-70
2023/07/13 05:29:35;;;;;;;10.30;1.55;;;;;;;;;;8324374;28;20123;-71
2023/07/13 05:33:36;;;;;;;8.30;1.30;;;;;;;;;;8308797;28;20038;-71
2023/07/13 05:37:37;;;;;;;5.00;1.10;;;;;;;;;;8322708;28;20393;-71
2023/07/13 05:41:37;;;;;;;13.07;1.58;;;;;;;;;;8327163;28;20025;-71
2023/07/13 05:45:37;;;;;;;5.57;1.38;;;;;;;;;;8327730;28;20109;-71
2023/07/13 05:49:38;;;;;;;10.03;1.30;;;;;;;;;;8327419;28;20028;-71
2023/07/13 05:53:38;;;;;;;5.63;1.27;;;;;;;;;;8328430;28;20048;-71
2023/07/13 05:57:38;;;;;;;4.70;1.20;;;;;;;;;;8328722;28;20035;-71
2023/07/13 06:01:39;;;;;;;3.07;1.33;;;;;;;;;;8328249;28;20037;-71
2023/07/13 06:05:39;;;;;;;5.85;1.30;;;;;;;;;;8327121;28;20378;-72
2023/07/13 06:09:39;;;;;;;7.30;1.35;;;;;;;;;;8326246;28;20029;-71
2023/07/13 06:13:39;;;;;;;6.65;1.30;;;;;;;;;;8328716;28;20111;-72
2023/07/13 06:17:39;;;;;;;4.88;1.20;;;;;;;;;;8326047;28;20041;-71
2023/07/13 06:21:40;;;;;;;5.03;1.20;;;;;;;;;;8323714;28;20039;-71
2023/07/13 06:25:40;;;;;;;5.07;1.10;;;;;;;;;;8327737;28;20033;-71
2023/07/13 06:29:40;;;;;;;3.65;1.20;;;;;;;;;;8326506;28;20028;-71
2023/07/13 06:33:40;;;;;;;5.18;0.90;;;;;;;;;;8326393;28;20029;-71
2023/07/13 06:37:40;;;;;;;6.40;1.10;;;;;;;;;;8326057;28;20020;-71
2023/07/13 06:41:41;;;;;;;3.77;1.10;;;;;;;;;;8325363;28;20036;-71
2023/07/13 06:45:45;;;;;;;4.28;1.10;;;;;;;;;;8324769;28;20069;-71
2023/07/13 06:49:45;;;;;;;3.85;1.10;;;;;;;;;;8327561;28;20090;-70
2023/07/13 06:53:45;;;;;;;4.18;1.17;;;;;;;;;;8327400;28;20395;-71
2023/07/13 06:57:46;;;;;;;4.45;1.40;;;;;;;;;;8324429;28;20033;-72
2023/07/13 07:01:46;;;;;;;8.10;1.20;;;;;;;;;;8326167;28;20720;-71
2023/07/13 07:05:46;;;;;;;7.10;1.30;;;;;;;;;;8306209;28;20641;-71
2023/07/13 07:09:46;;;;;;;4.43;1.40;;;;;;;;;;8325908;28;20076;-70
2023/07/13 07:13:46;;;;;;;4.03;1.10;;;;;;;;;;8327448;28;20090;-71
2023/07/13 07:17:46;;;;;;;3.88;1.23;;;;;;;;;;8324100;28;20029;-70
2023/07/13 07:21:47;;;;;;;3.67;0.90;;;;;;;;;;8324582;28;20024;-70
2023/07/13 07:25:47;;;;;;;3.55;0.98;;;;;;;;;;8325241;28;20047;-71
2023/07/13 07:29:47;;;;;;;2.38;0.80;;;;;;;;;;8307617;28;20031;-71
2023/07/13 07:33:49;;;;;;;4.23;1.43;;;;;;;;;;8324818;28;20037;-70
2023/07/13 07:37:49;;;;;;;3.67;1.10;;;;;;;;;;8324816;28;20959;-70
2023/07/13 07:41:49;;;;;;;3.38;1.05;;;;;;;;;;8323748;28;20079;-71
2023/07/13 07:45:50;;;;;;;4.20;1.10;;;;;;;;;;8325059;28;20037;-71
2023/07/13 07:49:50;;;;;;;3.75;1.10;;;;;;;;;;8324639;28;20032;-71
2023/07/13 07:53:50;;;;;;;5.45;1.17;;;;;;;;;;8327081;28;20033;-71
2023/07/13 07:57:50;;;;;;;3.95;1.23;;;;;;;;;;8322195;28;20406;-71
2023/07/13 08:01:50;;;;;;;4.20;1.00;;;;;;;;;;8323838;28;20041;-71
2023/07/13 08:05:53;;;;;;;4.10;1.20;;;;;;;;;;8326482;28;20024;-74
2023/07/13 08:09:54;;;;;;;2.88;1.20;;;;;;;;;;8325549;28;20104;-71
2023/07/13 08:13:54;;;;;;;2.38;1.00;;;;;;;;;;8322312;28;20876;-71
2023/07/13 08:17:55;;;;;;;8.13;1.70;;;;;;;;;;8322765;28;20041;-71
2023/07/13 08:21:55;;;;;;;3.63;1.20;;;;;;;;;;8324784;28;20131;-71
2023/07/13 08:25:55;;;;;;;2.20;1.00;;;;;;;;;;8324749;28;20029;-71
2023/07/13 08:29:55;;;;;;;3.95;1.20;;;;;;;;;;8323653;28;20504;-71
2023/07/13 08:33:55;;;;;;;3.45;1.17;;;;;;;;;;8322915;28;20919;-71
2023/07/13 08:37:56;;;;;;;5.07;1.20;;;;;;;;;;8323485;28;20057;-71
2023/07/13 08:42:00;;;;;;;4.03;1.23;;;;;;;;;;8322514;28;20024;-71
2023/07/13 08:46:01;;;;;;;7.35;1.35;;;;;;;;;;8306619;28;20041;-71
2023/07/13 08:50:03;;;;;;;7.20;1.10;;;;;;;;;;8324816;28;20037;-72
2023/07/13 08:54:17;;;;;;;4.95;1.25;;;;;;;;;;8325422;28;20033;-72
2023/07/13 08:58:18;;;;;;;3.10;1.20;;;;;;;;;;8320423;28;20429;-71
2023/07/13 09:02:18;;;;;;;6.90;1.02;;;;;;;;;;8324202;28;20028;-71
2023/07/13 09:06:22;;;;;;;3.13;0.93;;;;;;;;;;8322729;28;20083;-71
2023/07/13 09:10:36;;;;;;;3.65;1.00;;;;;;;;;;8321406;28;20036;-71
2023/07/13 09:14:56;;;;;;;3.45;1.10;;;;;;;;;;8322813;28;20452;-71
2023/07/13 09:19:00;;;;;;;2.00;0.90;;;;;;;;;;8322443;28;20046;-72
2023/07/13 09:23:01;;;;;;;4.38;1.50;;;;;;;;;;8324702;28;20029;-72
2023/07/13 09:27:03;;;;;;;3.08;1.23;;;;;;;;;;8321339;28;20068;-71
2023/07/13 09:31:03;;;;;;;;;;;;;;;;;;8305414;28;20040;-71
2023/07/13 09:35:09;;;;;;;3.75;1.02;;;;;;;;;;8322406;28;19912;-71
2023/07/13 09:39:13;;;;;;;3.13;1.00;;;;;;;;;;8323223;28;20028;-71
2023/07/13 09:43:14;;;;;;;5.03;1.25;;;;;;;;;;8320418;28;20043;-72
2023/07/13 09:47:19;;;;;;;4.13;1.20;;;;;;;;;;8320875;28;20449;-71
2023/07/13 09:51:19;;;;;;;3.15;1.00;;;;;;;;;;8323088;28;20024;-71
2023/07/13 09:55:23;;;;;;;2.20;0.97;;;;;;;;;;8322054;28;20144;-72
2023/07/13 09:59:28;;;;;;;2.88;1.00;;;;;;;;;;8322440;28;20292;-72
2023/07/13 10:03:32;;;;;;;6.25;1.33;;;;;;;;;;8321770;28;20075;-71
2023/07/13 10:07:38;;;;;;;1.70;1.00;;;;;;;;;;8323010;28;20111;-72
2023/07/13 10:11:39;;;;;;;4.70;1.00;;;;;;;;;;8324280;28;20134;-72
2023/07/13 10:15:39;;;;;;;2.75;0.90;;;;;;;;;;8326372;28;20072;-72
2023/07/13 10:19:41;;;;;;;2.80;1.05;;;;;;;;;;8311533;28;20017;-71
2023/07/13 10:23:41;;;;;;;2.60;1.10;;;;;;;;;;8329828;28;20025;-72
2023/07/13 10:27:42;;;;;;;1.73;1.20;;;;;;;;;;8324985;28;20044;-72
2023/07/13 10:31:44;;;;;;;1.27;0.90;;;;;;;;;;8328435;28;20369;-72
2023/07/13 10:35:46;;;;;;;2.58;1.20;;;;;;;;;;8329024;28;20043;-72
2023/07/13 10:39:47;;;;;;;2.38;1.08;;;;;;;;;;8327706;28;20037;-72
2023/07/13 10:43:50;;;;;;;1.42;1.08;;;;;;;;;;8325831;28;20036;-72
2023/07/13 10:47:53;;;;;;;2.03;0.90;;;;;;;;;;8326503;28;20127;-72
2023/07/13 10:51:53;;;;;;;3.88;1.20;;;;;;;;;;8327355;28;20029;-72
2023/07/13 10:55:53;;;;;;;5.10;1.10;;;;;;;;;;8323779;28;20559;-72
2023/07/13 11:00:14;;;;;;;2.28;1.00;;;;;;;;;;8325981;28;20051;-72
2023/07/13 11:04:18;;;;;;;4.10;1.00;;;;;;;;;;8326642;28;20045;-72
2023/07/13 11:08:20;;;;;;;1.40;0.98;;;;;;;;;;8325367;28;20024;-71
2023/07/13 11:12:24;;;;;;;1.98;1.02;;;;;;;;;;8327038;28;20029;-71
2023/07/13 11:16:24;;;;;;;1.67;1.08;;;;;;;;;;8325557;28;20086;-71
2023/07/13 11:20:36;;;;;;;3.13;1.13;;;;;;;;;;8311245;28;20656;-71
2023/07/13 11:24:53;;;;;;;1.67;0.90;;;;;;;;;;8323675;28;20037;-71
2023/07/13 11:28:53;;;;;;;6.38;1.50;;;;;;;;;;8324619;28;20025;-71
2023/07/13 11:33:05;;;;;;;3.45;1.30;;;;;;;;;;8325856;28;20510;-71
2023/07/13 11:37:11;;;;;;;6.60;1.30;;;;;;;;;;8322139;28;20063;-71
2023/07/13 11:41:19;;;;;;;3.83;1.20;;;;;;;;;;8324374;28;20033;-71
2023/07/13 11:45:22;;;;;;;6.97;1.45;;;;;;;;;;8290069;28;20942;-71
2023/07/13 11:49:24;;;;;;;4.82;1.40;;;;;;;;;;8278478;28;21588;-71
2023/07/13 11:53:26;;;;;;;2.67;1.10;;;;;;;;;;8293823;28;20957;-71
2023/07/13 11:57:27;;;;;;;;;;;;;;;;;;8292999;28;20033;-71
2023/07/13 12:01:32;;;;;;;4.18;1.17;;;;;;;;;;8291486;28;19921;-71
2023/07/13 12:05:32;;;;;;;3.10;1.23;;;;;;;;;;8291516;28;20037;-71
2023/07/13 12:09:33;;;;;;;2.70;1.10;;;;;;;;;;8273330;28;20837;-72
2023/07/13 12:13:38;;;;;;;5.55;1.42;;;;;;;;;;8290729;28;20773;-72
2023/07/13 12:17:38;;;;;;;2.72;1.30;;;;;;;;;;8289662;28;20042;-72
2023/07/13 12:21:39;;;;;;;5.63;1.20;;;;;;;;;;8289039;28;20018;-72
2023/07/13 12:25:39;;;;;;;3.70;1.20;;;;;;;;;;8289848;28;20039;-71
2023/07/13 12:29:39;;;;;;;3.53;1.30;;;;;;;;;;8290553;28;20025;-72
2023/07/13 12:33:41;;;;;;;2.33;1.30;;;;;;;;;;8287698;28;20331;-72
2023/07/13 12:37:42;;;;;;;4.43;1.40;;;;;;;;;;8271432;28;20163;-71
2023/07/13 12:41:43;;;;;;;5.95;1.48;;;;;;;;;;8287378;28;20060;-72
2023/07/13 12:46:13;;;;;;;4.00;1.10;;;;;;;;;;8319480;28;20059;-73
2023/07/13 12:50:18;;;;;;;3.30;1.30;;;;;;;;;;8306901;28;20036;-72
2023/07/13 12:54:18;;;;;;;3.83;1.10;;;;;;;;;;8304974;28;20059;-73
2023/07/13 12:58:26;;;;;;;4.90;1.45;;;;;;;;;;8319180;28;20136;-73
2023/07/13 13:02:31;;;;;;;6.07;1.30;;;;;;;;;;8321892;28;20501;-73
2023/07/13 13:06:31;;;;;;;3.83;1.17;;;;;;;;;;8322339;28;20474;-73
2023/07/13 13:10:31;;;;;;;5.55;1.35;;;;;;;;;;8322355;28;20132;-73
2023/07/13 13:14:32;;;;;;;5.00;1.50;;;;;;;;;;8321212;28;20040;-73
2023/07/13 13:18:32;;;;;;;4.47;1.10;;;;;;;;;;8304195;28;20199;-73
2023/07/13 13:22:32;;;;;;;3.17;1.48;;;;;;;;;;8320247;28;20048;-73
2023/07/13 13:26:32;;;;;;;2.88;1.10;;;;;;;;;;8316572;28;20028;-74
2023/07/13 13:30:33;;;;;;;3.72;1.15;;;;;;;;;;8318634;28;20037;-74
2023/07/13 13:34:34;;;;;;;3.93;1.10;;;;;;;;;;8316372;28;20029;-73
2023/07/13 13:38:34;;;;;;;3.22;1.00;;;;;;;;;;8297602;28;20094;-73
2023/07/13 13:42:34;;;;;;;1.87;1.13;;;;;;;;;;8316071;28;20041;-73
2023/07/13 13:46:35;;;;;;;3.08;1.15;;;;;;;;;;8300901;28;21072;-73
2023/07/13 13:50:35;;;;;;;4.70;1.27;;;;;;;;;;8296119;28;20032;-73
2023/07/13 13:54:35;;;;;;;6.50;1.30;;;;;;;;;;8323840;28;20024;-73
2023/07/13 13:58:35;;;;;;;3.13;1.00;;;;;;;;;;8325222;28;20140;-74
2023/07/13 14:02:36;;;;;;;1.67;1.10;;;;;;;;;;8323907;28;20140;-73
2023/07/13 14:06:36;;;;;;;5.77;1.40;;;;;;;;;;8324452;28;20116;-73
2023/07/13 14:10:36;;;;;;;5.50;1.10;;;;;;;;;;8324992;28;20025;-73
2023/07/13 14:14:36;;;;;;;3.45;1.25;;;;;;;;;;8325670;28;20295;-73
2023/07/13 14:18:37;;;;;;;4.97;1.20;;;;;;;;;;8323424;28;20094;-73
2023/07/13 14:22:37;;;;;;;2.42;0.90;;;;;;;;;;8321609;28;20048;-73
2023/07/13 14:26:39;;;;;;;4.35;1.10;;;;;;;;;;8322395;28;20029;-72
2023/07/13 14:30:39;;;;;;;2.53;1.10;;;;;;;;;;8318468;28;20476;-73
2023/07/13 14:34:40;;;;;;;5.53;1.13;;;;;;;;;;8317868;28;20021;-74
2023/07/13 14:38:40;;;;;;;1.10;0.90;;;;;;;;;;8321082;28;20029;-74
2023/07/13 14:42:40;;;;;;;5.30;1.40;;;;;;;;;;8321228;28;20275;-74
2023/07/13 14:46:41;;;;;;;2.22;1.10;;;;;;;;;;8316284;28;20047;-74
2023/07/13 14:50:41;;;;;;;2.70;0.88;;;;;;;;;;8322596;28;20029;-74
2023/07/13 14:54:43;;;;;;;2.17;1.05;;;;;;;;;;8322651;28;20132;-74
2023/07/13 14:58:43;;;;;;;1.00;0.90;;;;;;;;;;8320904;28;20029;-74
2023/07/13 15:02:46;;;;;;;1.95;1.13;;;;;;;;;;8308946;28;20040;-74
2023/07/13 15:07:01;;;;;;;2.47;1.13;;;;;;;;;;8321637;28;20105;-74
2023/07/13 15:11:01;;;;;;;3.58;0.80;;;;;;;;;;8323126;28;20021;-74
2023/07/13 15:15:04;;;;;;;1.02;0.80;;;;;;;;;;8321650;28;20466;-75
2023/07/13 15:19:04;;;;;;;2.22;1.02;;;;;;;;;;8319598;28;20048;-74
2023/07/13 15:23:05;;;;;;;2.60;1.20;;;;;;;;;;8320163;28;20907;-74
2023/07/13 15:27:09;;;;;;;2.53;1.05;;;;;;;;;;8320254;28;20115;-75
2023/07/13 15:31:37;;;;;;;1.60;1.00;;;;;;;;;;8300851;28;20071;-74
2023/07/13 15:35:38;;;;;;;1.73;0.85;;;;;;;;;;8317983;28;20086;-74
2023/07/13 15:39:38;;;;;;;1.27;0.90;;;;;;;;;;8319873;28;20060;-74
2023/07/13 15:43:38;;;;;;;2.05;1.05;;;;;;;;;;8305646;28;20107;-74
2023/07/13 15:47:38;;;;;;;2.72;0.95;;;;;;;;;;8308700;28;20072;-74
2023/07/13 15:51:38;;;;;;;1.13;0.88;;;;;;;;;;8318960;28;20108;-74
2023/07/13 15:55:41;;;;;;;2.60;1.00;;;;;;;;;;8320498;28;20032;-74
2023/07/13 15:59:42;;;;;;;0.80;0.80;;;;;;;;;;8319660;28;20032;-74
2023/07/13 16:03:43;;;;;;;2.03;0.93;;;;;;;;;;8315455;28;20043;-74
2023/07/13 16:07:47;;;;;;;2.08;0.90;;;;;;;;;;8315342;28;20031;-74
2023/07/13 16:11:48;;;;;;;3.15;1.10;;;;;;;;;;8318389;28;20032;-74
2023/07/13 16:15:48;;;;;;;3.70;1.10;;;;;;;;;;8320058;28;20095;-74
2023/07/13 16:19:49;;;;;;;2.20;0.75;;;;;;;;;;8319770;28;20029;-74
2023/07/13 16:23:51;;;;;;;5.15;1.10;;;;;;;;;;8321776;28;20126;-74
2023/07/13 16:27:52;;;;;;;2.17;0.98;;;;;;;;;;8318606;28;20021;-74
2023/07/13 16:32:01;;;;;;;1.27;0.90;;;;;;;;;;8321405;28;20029;-74
2023/07/13 16:36:02;;;;;;;3.08;0.90;;;;;;;;;;8318781;28;20036;-75
2023/07/13 16:40:21;;;;;;;4.70;0.82;;;;;;;;;;8318735;28;20051;-74
2023/07/13 16:44:22;;;;;;;2.67;1.02;;;;;;;;;;8317258;28;20102;-74
2023/07/13 16:48:23;;;;;;;1.40;0.88;;;;;;;;;;8300970;28;21084;-74
2023/07/13 16:52:23;;;;;;;2.42;0.98;;;;;;;;;;8321441;28;20040;-74
2023/07/13 16:56:23;;;;;;;2.60;1.10;;;;;;;;;;8317620;28;20963;-74
2023/07/13 17:00:27;;;;;;;2.17;1.20;;;;;;;;;;8313564;28;20094;-74
2023/07/13 17:04:28;;;;;;;1.67;0.90;;;;;;;;;;8317892;28;20568;-74
2023/07/13 17:08:30;;;;;;;3.80;1.27;;;;;;;;;;8317658;28;20035;-74
2023/07/13 17:12:30;;;;;;;6.07;1.10;;;;;;;;;;8301257;28;20726;-74
2023/07/13 17:16:31;;;;;;;2.65;1.00;;;;;;;;;;8311902;28;20037;-74
2023/07/13 17:20:36;;;;;;;6.00;1.10;;;;;;;;;;8312149;28;20027;-74
2023/07/13 17:24:37;;;;;;;1.98;0.90;;;;;;;;;;8315990;28;20033;-74
2023/07/13 17:28:37;;;;;;;2.17;0.90;;;;;;;;;;8316152;28;20739;-73
2023/07/13 17:32:37;;;;;;;5.25;1.08;;;;;;;;;;8314083;28;20045;-74
2023/07/13 17:36:38;;;;;;;1.27;0.90;;;;;;;;;;8317020;28;20060;-73
2023/07/13 17:40:40;;;;;;;3.05;0.98;;;;;;;;;;8315674;28;20429;-74
2023/07/13 17:44:40;;;;;;;3.28;1.02;;;;;;;;;;8314326;28;20881;-74
2023/07/13 17:48:42;;;;;;;1.50;1.13;;;;;;;;;;8315101;28;20106;-74
2023/07/13 17:52:42;;;;;;;2.55;1.00;;;;;;;;;;8315025;28;20040;-74
2023/07/13 17:56:43;;;;;;;2.45;0.90;;;;;;;;;;8313454;28;20027;-75
2023/07/13 18:00:44;;;;;;;3.15;1.00;;;;;;;;;;8317341;28;20107;-74
2023/07/13 18:04:46;;;;;;;5.15;1.00;;;;;;;;;;8296057;28;20021;-74
2023/07/13 18:08:51;;;;;;;5.72;1.30;;;;;;;;;;8315188;28;20017;-74
2023/07/13 18:12:52;;;;;;;1.75;0.90;;;;;;;;;;8315324;28;20809;-74
2023/07/13 18:16:54;;;;;;;3.83;0.90;;;;;;;;;;8311099;28;20025;-74
2023/07/13 18:20:54;;;;;;;3.53;1.00;;;;;;;;;;8311974;28;20021;-73
2023/07/13 18:24:55;;;;;;;3.20;1.10;;;;;;;;;;8316158;28;20029;-74
2023/07/13 18:28:55;;;;;;;1.92;1.10;;;;;;;;;;8314610;28;20029;-73
2023/07/13 18:32:56;;;;;;;5.00;0.90;;;;;;;;;;8316308;28;20029;-74
2023/07/13 18:36:56;;;;;;;1.20;0.75;;;;;;;;;;8320429;28;20025;-74
2023/07/13 18:40:57;;;;;;;3.67;1.07;;;;;;;;;;8317943;28;20086;-74
2023/07/13 18:44:57;;;;;;;3.80;0.80;;;;;;;;;;8320409;28;20044;-74
2023/07/13 18:48:57;;;;;;;5.88;1.00;;;;;;;;;;8319872;28;20037;-74
2023/07/13 18:52:58;;;;;;;4.00;0.90;;;;;;;;;;8320117;28;20029;-74
2023/07/13 18:56:58;;;;;;;4.65;1.10;;;;;;;;;;8317251;28;20183;-74
2023/07/13 19:00:58;;;;;;;5.60;1.20;;;;;;;;;;8303918;28;20103;-74
2023/07/13 19:04:58;;;;;;;2.50;0.90;;;;;;;;;;8322966;28;20028;-74
2023/07/13 19:08:59;;;;;;;2.33;1.00;;;;;;;;;;8302558;28;20055;-73
2023/07/13 19:13:00;;;;;;;4.35;1.00;;;;;;;;;;8319264;28;20112;-74
2023/07/13 19:17:00;;;;;;;2.25;0.90;;;;;;;;;;8320165;28;20045;-73
2023/07/13 19:21:04;;;;;;;3.67;0.98;;;;;;;;;;8317020;28;20013;-73
2023/07/13 19:25:04;;;;;;;4.63;1.00;;;;;;;;;;8316362;28;20033;-74
2023/07/13 19:29:05;;;;;;;0.93;0.80;;;;;;;;;;8314526;28;20017;-74
2023/07/13 19:33:05;;;;;;;2.60;1.00;;;;;;;;;;8303381;28;20104;-74
2023/07/13 19:37:14;;;;;;;2.25;1.00;;;;;;;;;;8315605;28;20112;-74
2023/07/13 19:41:15;;;;;;;2.95;1.10;;;;;;;;;;8319512;28;20037;-74
2023/07/13 19:45:17;;;;;;;1.52;0.95;;;;;;;;;;8312309;28;20029;-74
2023/07/13 19:49:19;;;;;;;4.50;1.20;;;;;;;;;;8292136;28;20020;-76
2023/07/13 19:53:20;;;;;;;3.10;1.00;;;;;;;;;;8320823;28;20024;-72
2023/07/13 19:57:22;;;;;;;2.95;0.90;;;;;;;;;;8320234;28;20020;-72
2023/07/13 20:01:23;;;;;;;0.90;0.73;;;;;;;;;;8299913;28;20049;-72
2023/07/13 20:05:23;;;;;;;1.57;1.10;;;;;;;;;;8320423;28;20650;-71
2023/07/13 20:09:24;;;;;;;8.35;1.20;;;;;;;;;;8299899;28;20040;-72
2023/07/13 20:13:31;;;;;;;5.60;1.10;;;;;;;;;;8321553;28;20036;-71
2023/07/13 20:17:33;;;;;;;2.70;1.00;;;;;;;;;;8319600;28;20033;-72
2023/07/13 20:21:34;;;;;;;1.73;0.90;;;;;;;;;;8309473;28;20028;-72
2023/07/13 20:25:34;;;;;;;2.53;1.00;;;;;;;;;;8322039;28;20033;-71
2023/07/13 20:29:34;;;;;;;3.00;1.00;;;;;;;;;;8321405;28;20098;-72
2023/07/13 20:33:34;;;;;;;3.50;1.00;;;;;;;;;;8319911;28;20299;-72
2023/07/13 20:37:38;;;;;;;1.48;0.93;;;;;;;;;;8317217;28;20643;-72
2023/07/13 20:41:41;;;;;;;;;;;;;;;;;;8321233;28;20422;-72
2023/07/13 20:45:41;;;;;;;2.33;1.00;;;;;;;;;;8299632;28;20377;-72
2023/07/13 20:49:41;;;;;;;3.28;1.25;;;;;;;;;;8321873;28;20283;-71
2023/07/13 20:53:42;;;;;;;1.50;0.90;;;;;;;;;;8325955;28;20075;-71
2023/07/13 20:57:44;;;;;;;1.40;1.00;;;;;;;;;;8322148;28;20898;-71
2023/07/13 21:01:44;;;;;;;2.13;0.93;;;;;;;;;;8318323;28;20056;-71
2023/07/13 21:05:44;;;;;;;2.10;1.05;;;;;;;;;;8318129;28;20047;-71
2023/07/13 21:09:44;;;;;;;1.67;1.10;;;;;;;;;;8306706;28;20048;-72
2023/07/13 21:13:45;;;;;;;3.40;1.20;;;;;;;;;;8321271;28;20024;-71
2023/07/13 21:17:47;;;;;;;1.00;0.90;;;;;;;;;;8311133;28;20664;-72
2023/07/13 21:21:47;;;;;;;2.97;0.90;;;;;;;;;;8315045;28;20977;-73
2023/07/13 21:25:47;;;;;;;2.03;0.80;;;;;;;;;;8293124;28;20028;-72
2023/07/13 21:29:52;;;;;;;3.03;1.17;;;;;;;;;;8288481;28;20029;-73
2023/07/13 21:33:54;;;;;;;1.38;1.00;;;;;;;;;;8314757;28;20280;-73
2023/07/13 21:37:55;;;;;;;3.30;1.15;;;;;;;;;;8314344;28;20041;-72
2023/07/13 21:41:56;;;;;;;4.40;1.30;;;;;;;;;;8313477;28;20104;-72
2023/07/13 21:45:57;;;;;;;1.73;1.10;;;;;;;;;;8315321;28;20118;-72
2023/07/13 21:49:57;;;;;;;4.93;1.15;;;;;;;;;;8316759;28;20057;-73
2023/07/13 21:53:57;;;;;;;1.55;1.10;;;;;;;;;;8317660;28;20032;-73
2023/07/13 21:57:57;;;;;;;1.45;1.10;;;;;;;;;;8298609;28;20120;-73
2023/07/13 22:01:58;;;;;;;2.03;1.00;;;;;;;;;;8316346;28;20087;-73
2023/07/13 22:05:59;;;;;;;4.40;1.10;;;;;;;;;;8318808;28;20032;-73
2023/07/13 22:09:59;;;;;;;2.05;0.90;;;;;;;;;;8324120;28;20013;-73
2023/07/13 22:13:59;;;;;;;3.10;1.00;;;;;;;;;;8323362;28;20804;-73
2023/07/13 22:18:02;;;;;;;1.77;0.93;;;;;;;;;;8324479;28;20040;-73
2023/07/13 22:22:02;;;;;;;3.85;1.05;;;;;;;;;;8324613;28;20079;-72
2023/07/13 22:26:10;;;;;;;3.03;0.90;;;;;;;;;;8324205;28;20033;-73
2023/07/13 22:30:12;;;;;;;3.28;1.00;;;;;;;;;;8306662;28;20028;-73
2023/07/13 22:34:14;;;;;;;2.17;1.00;;;;;;;;;;8326238;28;20419;-73
2023/07/13 22:38:16;;;;;;;2.00;0.90;;;;;;;;;;8319580;28;20024;-73
2023/07/13 22:42:16;;;;;;;2.75;1.13;;;;;;;;;;8322690;28;20033;-72
2023/07/13 22:46:22;;;;;;;5.10;1.00;;;;;;;;;;8321743;28;20040;-73
2023/07/13 22:50:23;;;;;;;3.55;1.02;;;;;;;;;;8325790;28;20025;-73
2023/07/13 22:54:23;;;;;;;1.73;0.80;;;;;;;;;;8321567;28;20025;-73
2023/07/13 22:58:25;;;;;;;4.43;1.15;;;;;;;;;;8311475;28;20028;-73
2023/07/13 23:02:26;;;;;;;4.32;1.10;;;;;;;;;;8319170;28;20048;-73
2023/07/13 23:06:28;;;;;;;1.20;0.90;;;;;;;;;;8320069;28;20016;-73
2023/07/13 23:10:29;;;;;;;2.92;0.95;;;;;;;;;;8305872;28;20259;-73
2023/07/13 23:14:29;;;;;;;1.92;0.95;;;;;;;;;;8319786;28;20022;-73
2023/07/13 23:18:30;;;;;;;5.23;1.10;;;;;;;;;;8319261;28;20532;-73
2023/07/13 23:22:30;;;;;;;3.55;0.90;;;;;;;;;;8325005;28;20283;-72
2023/07/13 23:26:30;;;;;;;1.67;0.90;;;;;;;;;;8320956;28;20796;-72
2023/07/13 23:30:31;;;;;;;1.23;0.90;;;;;;;;;;8323374;28;20546;-72
2023/07/13 23:34:31;;;;;;;3.28;0.88;;;;;;;;;;8323141;28;20033;-72
2023/07/13 23:38:31;;;;;;;4.27;1.10;;;;;;;;;;8323860;28;20498;-72
2023/07/13 23:42:31;;;;;;;4.10;0.90;;;;;;;;;;8321920;28;20275;-72
2023/07/13 23:46:37;;;;;;;1.90;1.00;;;;;;;;;;8317893;28;20040;-72
2023/07/13 23:50:38;;;;;;;1.25;0.90;;;;;;;;;;8317866;28;20135;-72
2023/07/13 23:54:38;;;;;;;1.08;0.90;;;;;;;;;;8322702;28;21477;-72
2023/07/13 23:58:39;;;;;;;1.77;0.95;;;;;;;;;;8302901;28;20460;-72
